sensor_id;sensor_type;location;lat;lon;timestamp;P1;durP1;ratioP1;P2;durP2;ratioP2
56746;SDS011;42623;49.978;9.966;2023-11-19T00:00:04;6.47;;;3.15;;
56746;SDS011;42623;49.978;9.966;2023-11-19T00:00:14;6.60;;;3.50;;
56746;SDS011;42623;49.978;9.966;2023-11-19T00:00:25;7.30;;;3.40;;
56746;SDS011;42623;49.978;9.966;2023-11-19T00:00:35;8.23;;;3.80;;
56746;SDS011;42623;49.978;9.966;2023-11-19T00:00:45;7.32;;;3.65;;
56746;SDS011;42623;49.978;9.966;2023-11-19T00:00:56;6.70;;;3.60;;
56746;SDS011;42623;49.978;9.966;2023-11-19T00:01:06;5.73;;;3.10;;
56746;SDS011;42623;49.978;9.966;2023-11-19T00:01:16;5.47;;;2.87;;
56746;SDS011;42623;49.978;9.966;2023-11-19T00:01:26;5.85;;;2.92;;
56746;SDS011;42623;49.978;9.966;2023-11-19T00:01:36;5.87;;;2.97;;
56746;SDS011;42623;49.978;9.966;2023-11-19T00:01:46;6.17;;;3.00;;
56746;SDS011;42623;49.978;9.966;2023-11-19T00:01:57;5.67;;;3.13;;
56746;SDS011;42623;49.978;9.966;2023-11-19T00:02:07;6.00;;;3.22;;
56746;SDS011;42623;49.978;9.966;2023-11-19T00:02:18;5.47;;;3.13;;
56746;SDS011;42623;49.978;9.966;2023-11-19T00:02:28;5.47;;;3.03;;
56746;SDS011;42623;49.978;9.966;2023-11-19T00:02:38;5.50;;;3.03;;
56746;SDS011;42623;49.978;9.966;2023-11-19T00:02:49;6.03;;;3.13;;
56746;SDS011;42623;49.978;9.966;2023-11-19T00:02:59;5.93;;;3.13;;
56746;SDS011;42623;49.978;9.966;2023-11-19T00:03:09;6.13;;;3.33;;
56746;SDS011;42623;49.978;9.966;2023-11-19T00:03:23;6.08;;;3.32;;
56746;SDS011;42623;49.978;9.966;2023-11-19T00:03:33;6.13;;;3.23;;
56746;SDS011;42623;49.978;9.966;2023-11-19T00:03:43;5.13;;;2.83;;
56746;SDS011;42623;49.978;9.966;2023-11-19T00:03:54;5.25;;;2.90;;
56746;SDS011;42623;49.978;9.966;2023-11-19T00:04:04;5.87;;;3.30;;
56746;SDS011;42623;49.978;9.966;2023-11-19T00:04:14;6.20;;;3.65;;
56746;SDS011;42623;49.978;9.966;2023-11-19T00:04:25;6.93;;;4.00;;
56746;SDS011;42623;49.978;9.966;2023-11-19T00:04:38;6.70;;;3.77;;
56746;SDS011;42623;49.978;9.966;2023-11-19T00:04:51;6.55;;;3.28;;
56746;SDS011;42623;49.978;9.966;2023-11-19T00:05:01;6.33;;;3.20;;
56746;SDS011;42623;49.978;9.966;2023-11-19T00:05:11;6.37;;;3.37;;
56746;SDS011;42623;49.978;9.966;2023-11-19T00:05:21;6.22;;;3.40;;
56746;SDS011;42623;49.978;9.966;2023-11-19T00:05:31;6.00;;;3.37;;
56746;SDS011;42623;49.978;9.966;2023-11-19T00:05:41;5.70;;;3.20;;
56746;SDS011;42623;49.978;9.966;2023-11-19T00:05:51;5.37;;;3.10;;
56746;SDS011;42623;49.978;9.966;2023-11-19T00:06:02;5.23;;;3.13;;
56746;SDS011;42623;49.978;9.966;2023-11-19T00:06:14;6.05;;;3.28;;
56746;SDS011;42623;49.978;9.966;2023-11-19T00:06:24;5.77;;;3.03;;
56746;SDS011;42623;49.978;9.966;2023-11-19T00:06:35;5.43;;;2.90;;
56746;SDS011;42623;49.978;9.966;2023-11-19T00:06:45;5.43;;;3.03;;
56746;SDS011;42623;49.978;9.966;2023-11-19T00:06:55;5.87;;;3.23;;
56746;SDS011;42623;49.978;9.966;2023-11-19T00:07:12;5.72;;;3.40;;
56746;SDS011;42623;49.978;9.966;2023-11-19T00:07:23;5.53;;;3.22;;
56746;SDS011;42623;49.978;9.966;2023-11-19T00:07:34;5.73;;;3.33;;
56746;SDS011;42623;49.978;9.966;2023-11-19T00:07:45;5.88;;;3.45;;
56746;SDS011;42623;49.978;9.966;2023-11-19T00:07:55;6.13;;;3.37;;
56746;SDS011;42623;49.978;9.966;2023-11-19T00:08:05;6.07;;;3.33;;
56746;SDS011;42623;49.978;9.966;2023-11-19T00:08:18;5.88;;;3.20;;
56746;SDS011;42623;49.978;9.966;2023-11-19T00:08:28;6.00;;;3.50;;
56746;SDS011;42623;49.978;9.966;2023-11-19T00:08:39;6.50;;;3.73;;
56746;SDS011;42623;49.978;9.966;2023-11-19T00:08:49;7.13;;;3.87;;
56746;SDS011;42623;49.978;9.966;2023-11-19T00:09:00;6.82;;;3.50;;
56746;SDS011;42623;49.978;9.966;2023-11-19T00:09:10;6.32;;;3.58;;
56746;SDS011;42623;49.978;9.966;2023-11-19T00:09:20;5.83;;;3.63;;
56746;SDS011;42623;49.978;9.966;2023-11-19T00:09:30;6.07;;;3.73;;
56746;SDS011;42623;49.978;9.966;2023-11-19T00:09:41;6.40;;;3.70;;
56746;SDS011;42623;49.978;9.966;2023-11-19T00:09:53;7.10;;;3.83;;
56746;SDS011;42623;49.978;9.966;2023-11-19T00:10:05;7.30;;;3.92;;
56746;SDS011;42623;49.978;9.966;2023-11-19T00:10:16;7.10;;;3.75;;
56746;SDS011;42623;49.978;9.966;2023-11-19T00:10:30;6.45;;;3.80;;
56746;SDS011;42623;49.978;9.966;2023-11-19T00:10:40;6.23;;;3.57;;
56746;SDS011;42623;49.978;9.966;2023-11-19T00:10:51;7.45;;;3.42;;
56746;SDS011;42623;49.978;9.966;2023-11-19T00:11:01;7.77;;;3.57;;
56746;SDS011;42623;49.978;9.966;2023-11-19T00:11:11;8.17;;;3.83;;
56746;SDS011;42623;49.978;9.966;2023-11-19T00:11:25;7.18;;;4.07;;
56746;SDS011;42623;49.978;9.966;2023-11-19T00:11:35;8.57;;;4.60;;
56746;SDS011;42623;49.978;9.966;2023-11-19T00:11:46;8.40;;;4.63;;
56746;SDS011;42623;49.978;9.966;2023-11-19T00:11:57;7.72;;;4.15;;
56746;SDS011;42623;49.978;9.966;2023-11-19T00:12:07;6.70;;;3.67;;
56746;SDS011;42623;49.978;9.966;2023-11-19T00:12:18;6.70;;;3.50;;
56746;SDS011;42623;49.978;9.966;2023-11-19T00:12:28;7.10;;;3.58;;
56746;SDS011;42623;49.978;9.966;2023-11-19T00:12:40;7.27;;;3.80;;
56746;SDS011;42623;49.978;9.966;2023-11-19T00:12:50;7.55;;;4.00;;
56746;SDS011;42623;49.978;9.966;2023-11-19T00:13:00;7.50;;;4.07;;
56746;SDS011;42623;49.978;9.966;2023-11-19T00:13:12;7.03;;;3.70;;
56746;SDS011;42623;49.978;9.966;2023-11-19T00:13:22;6.00;;;3.50;;
56746;SDS011;42623;49.978;9.966;2023-11-19T00:13:33;6.45;;;3.63;;
56746;SDS011;42623;49.978;9.966;2023-11-19T00:13:43;6.40;;;3.77;;
56746;SDS011;42623;49.978;9.966;2023-11-19T00:13:53;6.20;;;3.43;;
56746;SDS011;42623;49.978;9.966;2023-11-19T00:14:03;5.47;;;3.17;;
56746;SDS011;42623;49.978;9.966;2023-11-19T00:14:14;5.00;;;2.83;;
56746;SDS011;42623;49.978;9.966;2023-11-19T00:14:24;5.13;;;3.03;;
56746;SDS011;42623;49.978;9.966;2023-11-19T00:14:35;5.40;;;3.28;;
56746;SDS011;42623;49.978;9.966;2023-11-19T00:14:45;6.10;;;3.47;;
56746;SDS011;42623;49.978;9.966;2023-11-19T00:14:55;6.72;;;3.42;;
56746;SDS011;42623;49.978;9.966;2023-11-19T00:15:06;7.70;;;3.47;;
56746;SDS011;42623;49.978;9.966;2023-11-19T00:15:17;7.63;;;3.50;;
56746;SDS011;42623;49.978;9.966;2023-11-19T00:15:28;7.05;;;3.42;;
56746;SDS011;42623;49.978;9.966;2023-11-19T00:15:38;5.87;;;3.07;;
56746;SDS011;42623;49.978;9.966;2023-11-19T00:15:48;5.72;;;3.03;;
56746;SDS011;42623;49.978;9.966;2023-11-19T00:15:58;5.47;;;3.00;;
56746;SDS011;42623;49.978;9.966;2023-11-19T00:16:09;5.87;;;3.13;;
56746;SDS011;42623;49.978;9.966;2023-11-19T00:16:19;6.05;;;3.17;;
56746;SDS011;42623;49.978;9.966;2023-11-19T00:16:29;6.20;;;3.00;;
56746;SDS011;42623;49.978;9.966;2023-11-19T00:16:42;6.28;;;3.15;;
56746;SDS011;42623;49.978;9.966;2023-11-19T00:16:52;6.97;;;3.00;;
56746;SDS011;42623;49.978;9.966;2023-11-19T00:17:03;6.47;;;2.97;;
56746;SDS011;42623;49.978;9.966;2023-11-19T00:17:14;6.03;;;3.22;;
56746;SDS011;42623;49.978;9.966;2023-11-19T00:17:24;5.50;;;3.20;;
56746;SDS011;42623;49.978;9.966;2023-11-19T00:17:34;5.77;;;3.20;;
56746;SDS011;42623;49.978;9.966;2023-11-19T00:17:45;5.30;;;2.87;;
56746;SDS011;42623;49.978;9.966;2023-11-19T00:17:55;5.32;;;2.80;;
56746;SDS011;42623;49.978;9.966;2023-11-19T00:18:05;5.27;;;2.93;;
56746;SDS011;42623;49.978;9.966;2023-11-19T00:18:15;5.75;;;3.03;;
56746;SDS011;42623;49.978;9.966;2023-11-19T00:18:26;5.87;;;3.27;;
56746;SDS011;42623;49.978;9.966;2023-11-19T00:18:36;6.07;;;3.33;;
56746;SDS011;42623;49.978;9.966;2023-11-19T00:18:46;5.97;;;3.37;;
56746;SDS011;42623;49.978;9.966;2023-11-19T00:18:56;5.90;;;3.13;;
56746;SDS011;42623;49.978;9.966;2023-11-19T00:19:06;5.63;;;2.95;;
56746;SDS011;42623;49.978;9.966;2023-11-19T00:19:18;5.93;;;3.03;;
56746;SDS011;42623;49.978;9.966;2023-11-19T00:19:28;6.03;;;2.97;;
56746;SDS011;42623;49.978;9.966;2023-11-19T00:19:38;6.10;;;3.00;;
56746;SDS011;42623;49.978;9.966;2023-11-19T00:19:48;5.97;;;2.90;;
56746;SDS011;42623;49.978;9.966;2023-11-19T00:20:01;5.50;;;2.67;;
56746;SDS011;42623;49.978;9.966;2023-11-19T00:20:11;5.65;;;2.63;;
56746;SDS011;42623;49.978;9.966;2023-11-19T00:20:22;5.50;;;2.63;;
56746;SDS011;42623;49.978;9.966;2023-11-19T00:20:32;5.33;;;2.57;;
56746;SDS011;42623;49.978;9.966;2023-11-19T00:20:42;5.33;;;2.77;;
56746;SDS011;42623;49.978;9.966;2023-11-19T00:20:54;5.85;;;3.10;;
56746;SDS011;42623;49.978;9.966;2023-11-19T00:21:04;5.67;;;3.10;;
56746;SDS011;42623;49.978;9.966;2023-11-19T00:21:15;5.63;;;3.17;;
56746;SDS011;42623;49.978;9.966;2023-11-19T00:21:25;6.63;;;2.90;;
56746;SDS011;42623;49.978;9.966;2023-11-19T00:21:38;6.78;;;2.95;;
56746;SDS011;42623;49.978;9.966;2023-11-19T00:21:48;7.07;;;2.90;;
56746;SDS011;42623;49.978;9.966;2023-11-19T00:21:58;6.68;;;3.35;;
56746;SDS011;42623;49.978;9.966;2023-11-19T00:22:12;6.53;;;3.45;;
56746;SDS011;42623;49.978;9.966;2023-11-19T00:22:22;5.90;;;3.20;;
56746;SDS011;42623;49.978;9.966;2023-11-19T00:22:33;5.93;;;3.13;;
56746;SDS011;42623;49.978;9.966;2023-11-19T00:22:43;5.73;;;2.87;;
56746;SDS011;42623;49.978;9.966;2023-11-19T00:22:53;5.63;;;3.00;;
56746;SDS011;42623;49.978;9.966;2023-11-19T00:23:04;6.10;;;2.90;;
56746;SDS011;42623;49.978;9.966;2023-11-19T00:23:14;7.07;;;3.07;;
56746;SDS011;42623;49.978;9.966;2023-11-19T00:23:24;7.63;;;3.27;;
56746;SDS011;42623;49.978;9.966;2023-11-19T00:23:34;7.07;;;3.57;;
56746;SDS011;42623;49.978;9.966;2023-11-19T00:23:44;6.47;;;3.60;;
56746;SDS011;42623;49.978;9.966;2023-11-19T00:23:54;5.93;;;3.30;;
56746;SDS011;42623;49.978;9.966;2023-11-19T00:24:05;5.80;;;3.13;;
56746;SDS011;42623;49.978;9.966;2023-11-19T00:24:15;5.30;;;2.88;;
56746;SDS011;42623;49.978;9.966;2023-11-19T00:24:28;5.53;;;3.00;;
56746;SDS011;42623;49.978;9.966;2023-11-19T00:24:38;5.90;;;3.13;;
56746;SDS011;42623;49.978;9.966;2023-11-19T00:24:49;6.10;;;3.22;;
56746;SDS011;42623;49.978;9.966;2023-11-19T00:24:59;5.57;;;2.90;;
56746;SDS011;42623;49.978;9.966;2023-11-19T00:25:10;5.20;;;2.87;;
56746;SDS011;42623;49.978;9.966;2023-11-19T00:25:20;5.97;;;3.13;;
56746;SDS011;42623;49.978;9.966;2023-11-19T00:25:31;6.20;;;3.35;;
56746;SDS011;42623;49.978;9.966;2023-11-19T00:25:41;8.25;;;3.90;;
56746;SDS011;42623;49.978;9.966;2023-11-19T00:25:51;7.33;;;3.50;;
56746;SDS011;42623;49.978;9.966;2023-11-19T00:26:02;6.77;;;3.30;;
56746;SDS011;42623;49.978;9.966;2023-11-19T00:26:12;4.80;;;2.80;;
56746;SDS011;42623;49.978;9.966;2023-11-19T00:26:23;5.83;;;3.40;;
56746;SDS011;42623;49.978;9.966;2023-11-19T00:26:33;6.18;;;3.60;;
56746;SDS011;42623;49.978;9.966;2023-11-19T00:26:44;6.57;;;3.80;;
56746;SDS011;42623;49.978;9.966;2023-11-19T00:26:54;6.00;;;3.43;;
56746;SDS011;42623;49.978;9.966;2023-11-19T00:27:04;5.68;;;3.05;;
56746;SDS011;42623;49.978;9.966;2023-11-19T00:27:14;5.30;;;2.90;;
56746;SDS011;42623;49.978;9.966;2023-11-19T00:27:25;5.60;;;3.03;;
56746;SDS011;42623;49.978;9.966;2023-11-19T00:27:36;6.27;;;3.20;;
56746;SDS011;42623;49.978;9.966;2023-11-19T00:27:47;6.55;;;3.55;;
56746;SDS011;42623;49.978;9.966;2023-11-19T00:27:57;6.77;;;3.53;;
56746;SDS011;42623;49.978;9.966;2023-11-19T00:28:07;6.23;;;3.23;;
56746;SDS011;42623;49.978;9.966;2023-11-19T00:28:17;6.10;;;3.15;;
56746;SDS011;42623;49.978;9.966;2023-11-19T00:28:28;5.90;;;3.37;;
56746;SDS011;42623;49.978;9.966;2023-11-19T00:28:38;6.53;;;3.87;;
56746;SDS011;42623;49.978;9.966;2023-11-19T00:28:48;6.93;;;4.10;;
56746;SDS011;42623;49.978;9.966;2023-11-19T00:28:59;6.90;;;4.10;;
56746;SDS011;42623;49.978;9.966;2023-11-19T00:29:09;7.43;;;3.93;;
56746;SDS011;42623;49.978;9.966;2023-11-19T00:29:19;7.63;;;3.85;;
56746;SDS011;42623;49.978;9.966;2023-11-19T00:29:30;7.35;;;3.72;;
56746;SDS011;42623;49.978;9.966;2023-11-19T00:29:41;7.17;;;3.70;;
56746;SDS011;42623;49.978;9.966;2023-11-19T00:29:51;7.60;;;4.07;;
56746;SDS011;42623;49.978;9.966;2023-11-19T00:30:01;7.80;;;4.28;;
56746;SDS011;42623;49.978;9.966;2023-11-19T00:30:12;8.30;;;4.37;;
56746;SDS011;42623;49.978;9.966;2023-11-19T00:30:23;7.95;;;4.15;;
56746;SDS011;42623;49.978;9.966;2023-11-19T00:30:33;7.50;;;4.00;;
56746;SDS011;42623;49.978;9.966;2023-11-19T00:30:43;7.13;;;4.03;;
56746;SDS011;42623;49.978;9.966;2023-11-19T00:30:53;7.47;;;4.30;;
56746;SDS011;42623;49.978;9.966;2023-11-19T00:31:04;8.10;;;4.65;;
56746;SDS011;42623;49.978;9.966;2023-11-19T00:31:14;8.10;;;4.83;;
56746;SDS011;42623;49.978;9.966;2023-11-19T00:31:24;8.27;;;4.97;;
56746;SDS011;42623;49.978;9.966;2023-11-19T00:31:36;8.13;;;4.93;;
56746;SDS011;42623;49.978;9.966;2023-11-19T00:31:46;8.77;;;5.30;;
56746;SDS011;42623;49.978;9.966;2023-11-19T00:31:56;8.43;;;4.93;;
56746;SDS011;42623;49.978;9.966;2023-11-19T00:32:06;7.82;;;4.63;;
56746;SDS011;42623;49.978;9.966;2023-11-19T00:32:17;8.47;;;4.53;;
56746;SDS011;42623;49.978;9.966;2023-11-19T00:32:27;8.38;;;4.95;;
56746;SDS011;42623;49.978;9.966;2023-11-19T00:32:37;8.90;;;5.63;;
56746;SDS011;42623;49.978;9.966;2023-11-19T00:32:49;8.27;;;6.07;;
56746;SDS011;42623;49.978;9.966;2023-11-19T00:32:59;9.25;;;6.63;;
56746;SDS011;42623;49.978;9.966;2023-11-19T00:33:09;9.13;;;6.23;;
56746;SDS011;42623;49.978;9.966;2023-11-19T00:33:19;8.47;;;5.97;;
56746;SDS011;42623;49.978;9.966;2023-11-19T00:33:30;7.93;;;5.43;;
56746;SDS011;42623;49.978;9.966;2023-11-19T00:33:41;8.25;;;5.57;;
56746;SDS011;42623;49.978;9.966;2023-11-19T00:33:51;9.20;;;5.70;;
56746;SDS011;42623;49.978;9.966;2023-11-19T00:34:01;9.07;;;5.27;;
56746;SDS011;42623;49.978;9.966;2023-11-19T00:34:16;7.50;;;4.53;;
56746;SDS011;42623;49.978;9.966;2023-11-19T00:34:26;6.63;;;4.43;;
56746;SDS011;42623;49.978;9.966;2023-11-19T00:34:36;6.40;;;4.57;;
56746;SDS011;42623;49.978;9.966;2023-11-19T00:34:46;6.63;;;4.63;;
56746;SDS011;42623;49.978;9.966;2023-11-19T00:34:57;7.72;;;5.03;;
56746;SDS011;42623;49.978;9.966;2023-11-19T00:35:08;7.70;;;5.10;;
56746;SDS011;42623;49.978;9.966;2023-11-19T00:35:18;7.38;;;4.75;;
56746;SDS011;42623;49.978;9.966;2023-11-19T00:35:28;6.68;;;3.97;;
56746;SDS011;42623;49.978;9.966;2023-11-19T00:35:39;6.73;;;3.90;;
56746;SDS011;42623;49.978;9.966;2023-11-19T00:35:49;6.83;;;3.80;;
56746;SDS011;42623;49.978;9.966;2023-11-19T00:35:59;6.27;;;3.67;;
56746;SDS011;42623;49.978;9.966;2023-11-19T00:36:09;6.63;;;3.90;;
56746;SDS011;42623;49.978;9.966;2023-11-19T00:36:19;6.68;;;3.97;;
56746;SDS011;42623;49.978;9.966;2023-11-19T00:36:30;6.70;;;4.07;;
56746;SDS011;42623;49.978;9.966;2023-11-19T00:36:40;6.78;;;3.83;;
56746;SDS011;42623;49.978;9.966;2023-11-19T00:36:50;6.77;;;3.70;;
56746;SDS011;42623;49.978;9.966;2023-11-19T00:37:00;6.90;;;3.53;;
56746;SDS011;42623;49.978;9.966;2023-11-19T00:37:11;6.10;;;3.20;;
56746;SDS011;42623;49.978;9.966;2023-11-19T00:37:21;6.00;;;3.23;;
56746;SDS011;42623;49.978;9.966;2023-11-19T00:37:31;6.25;;;3.25;;
56746;SDS011;42623;49.978;9.966;2023-11-19T00:37:41;5.97;;;3.17;;
56746;SDS011;42623;49.978;9.966;2023-11-19T00:37:52;6.00;;;3.38;;
56746;SDS011;42623;49.978;9.966;2023-11-19T00:38:04;5.13;;;3.17;;
56746;SDS011;42623;49.978;9.966;2023-11-19T00:38:14;5.23;;;3.23;;
56746;SDS011;42623;49.978;9.966;2023-11-19T00:38:24;4.90;;;3.00;;
56746;SDS011;42623;49.978;9.966;2023-11-19T00:38:34;5.77;;;3.13;;
56746;SDS011;42623;49.978;9.966;2023-11-19T00:38:45;5.78;;;3.10;;
56746;SDS011;42623;49.978;9.966;2023-11-19T00:38:55;5.70;;;3.00;;
56746;SDS011;42623;49.978;9.966;2023-11-19T00:39:05;5.40;;;3.00;;
56746;SDS011;42623;49.978;9.966;2023-11-19T00:39:16;5.63;;;3.03;;
56746;SDS011;42623;49.978;9.966;2023-11-19T00:39:27;6.35;;;3.13;;
56746;SDS011;42623;49.978;9.966;2023-11-19T00:39:37;6.13;;;3.07;;
56746;SDS011;42623;49.978;9.966;2023-11-19T00:39:47;5.95;;;2.97;;
56746;SDS011;42623;49.978;9.966;2023-11-19T00:39:58;5.50;;;2.87;;
56746;SDS011;42623;49.978;9.966;2023-11-19T00:40:08;5.47;;;2.83;;
56746;SDS011;42623;49.978;9.966;2023-11-19T00:40:20;5.80;;;2.92;;
56746;SDS011;42623;49.978;9.966;2023-11-19T00:40:32;5.78;;;2.90;;
56746;SDS011;42623;49.978;9.966;2023-11-19T00:40:43;5.87;;;2.87;;
56746;SDS011;42623;49.978;9.966;2023-11-19T00:40:54;5.78;;;2.97;;
56746;SDS011;42623;49.978;9.966;2023-11-19T00:41:04;5.28;;;2.83;;
56746;SDS011;42623;49.978;9.966;2023-11-19T00:41:14;5.23;;;2.93;;
56746;SDS011;42623;49.978;9.966;2023-11-19T00:41:26;5.22;;;2.75;;
56746;SDS011;42623;49.978;9.966;2023-11-19T00:41:36;5.47;;;2.80;;
56746;SDS011;42623;49.978;9.966;2023-11-19T00:41:46;4.97;;;2.43;;
56746;SDS011;42623;49.978;9.966;2023-11-19T00:41:56;4.77;;;2.30;;
56746;SDS011;42623;49.978;9.966;2023-11-19T00:42:07;4.53;;;2.13;;
56746;SDS011;42623;49.978;9.966;2023-11-19T00:42:17;5.13;;;2.43;;
56746;SDS011;42623;49.978;9.966;2023-11-19T00:42:27;4.87;;;2.43;;
56746;SDS011;42623;49.978;9.966;2023-11-19T00:42:37;4.47;;;2.43;;
56746;SDS011;42623;49.978;9.966;2023-11-19T00:42:47;4.63;;;2.50;;
56746;SDS011;42623;49.978;9.966;2023-11-19T00:42:57;4.70;;;2.53;;
56746;SDS011;42623;49.978;9.966;2023-11-19T00:43:08;4.97;;;2.63;;
56746;SDS011;42623;49.978;9.966;2023-11-19T00:43:18;7.20;;;3.20;;
56746;SDS011;42623;49.978;9.966;2023-11-19T00:43:32;7.53;;;3.17;;
56746;SDS011;42623;49.978;9.966;2023-11-19T00:43:42;7.23;;;3.07;;
56746;SDS011;42623;49.978;9.966;2023-11-19T00:43:52;5.23;;;2.80;;
56746;SDS011;42623;49.978;9.966;2023-11-19T00:44:02;5.27;;;2.93;;
56746;SDS011;42623;49.978;9.966;2023-11-19T00:44:12;5.30;;;2.97;;
56746;SDS011;42623;49.978;9.966;2023-11-19T00:44:22;5.13;;;2.90;;
56746;SDS011;42623;49.978;9.966;2023-11-19T00:44:33;5.15;;;2.80;;
56746;SDS011;42623;49.978;9.966;2023-11-19T00:44:43;4.27;;;2.33;;
56746;SDS011;42623;49.978;9.966;2023-11-19T00:44:53;3.93;;;2.27;;
56746;SDS011;42623;49.978;9.966;2023-11-19T00:45:03;4.07;;;2.40;;
56746;SDS011;42623;49.978;9.966;2023-11-19T00:45:18;4.45;;;2.72;;
56746;SDS011;42623;49.978;9.966;2023-11-19T00:45:28;4.97;;;3.17;;
56746;SDS011;42623;49.978;9.966;2023-11-19T00:45:39;4.88;;;3.10;;
56746;SDS011;42623;49.978;9.966;2023-11-19T00:45:49;5.10;;;3.00;;
56746;SDS011;42623;49.978;9.966;2023-11-19T00:46:00;4.85;;;2.58;;
56746;SDS011;42623;49.978;9.966;2023-11-19T00:46:10;4.93;;;2.60;;
56746;SDS011;42623;49.978;9.966;2023-11-19T00:46:21;6.00;;;2.57;;
56746;SDS011;42623;49.978;9.966;2023-11-19T00:46:31;5.97;;;2.60;;
56746;SDS011;42623;49.978;9.966;2023-11-19T00:46:42;5.70;;;2.42;;
56746;SDS011;42623;49.978;9.966;2023-11-19T00:46:52;5.00;;;2.55;;
56746;SDS011;42623;49.978;9.966;2023-11-19T00:47:03;5.23;;;2.70;;
56746;SDS011;42623;49.978;9.966;2023-11-19T00:47:13;4.83;;;2.67;;
56746;SDS011;42623;49.978;9.966;2023-11-19T00:47:23;4.88;;;2.80;;
56746;SDS011;42623;49.978;9.966;2023-11-19T00:47:33;4.70;;;2.60;;
56746;SDS011;42623;49.978;9.966;2023-11-19T00:47:45;6.00;;;2.75;;
56746;SDS011;42623;49.978;9.966;2023-11-19T00:47:55;6.20;;;2.60;;
56746;SDS011;42623;49.978;9.966;2023-11-19T00:48:05;6.53;;;2.80;;
56746;SDS011;42623;49.978;9.966;2023-11-19T00:48:15;6.87;;;3.00;;
56746;SDS011;42623;49.978;9.966;2023-11-19T00:48:26;7.10;;;3.25;;
56746;SDS011;42623;49.978;9.966;2023-11-19T00:48:38;6.28;;;3.10;;
56746;SDS011;42623;49.978;9.966;2023-11-19T00:48:48;5.37;;;3.10;;
56746;SDS011;42623;49.978;9.966;2023-11-19T00:48:58;4.93;;;2.90;;
56746;SDS011;42623;49.978;9.966;2023-11-19T00:49:11;5.80;;;3.10;;
56746;SDS011;42623;49.978;9.966;2023-11-19T00:49:21;5.47;;;2.80;;
56746;SDS011;42623;49.978;9.966;2023-11-19T00:49:32;5.47;;;3.10;;
56746;SDS011;42623;49.978;9.966;2023-11-19T00:49:42;4.73;;;2.90;;
56746;SDS011;42623;49.978;9.966;2023-11-19T00:49:52;5.75;;;3.20;;
56746;SDS011;42623;49.978;9.966;2023-11-19T00:50:03;5.60;;;2.80;;
56746;SDS011;42623;49.978;9.966;2023-11-19T00:50:13;6.30;;;3.30;;
56746;SDS011;42623;49.978;9.966;2023-11-19T00:50:23;6.07;;;3.20;;
56746;SDS011;42623;49.978;9.966;2023-11-19T00:50:33;6.07;;;3.28;;
56746;SDS011;42623;49.978;9.966;2023-11-19T00:50:43;6.13;;;3.20;;
56746;SDS011;42623;49.978;9.966;2023-11-19T00:50:55;6.88;;;3.88;;
56746;SDS011;42623;49.978;9.966;2023-11-19T00:51:05;7.87;;;4.40;;
56746;SDS011;42623;49.978;9.966;2023-11-19T00:51:15;8.40;;;4.82;;
56746;SDS011;42623;49.978;9.966;2023-11-19T00:51:26;9.53;;;4.80;;
56746;SDS011;42623;49.978;9.966;2023-11-19T00:51:36;8.85;;;4.63;;
56746;SDS011;42623;49.978;9.966;2023-11-19T00:51:46;8.63;;;4.33;;
56746;SDS011;42623;49.978;9.966;2023-11-19T00:51:56;6.97;;;4.00;;
56746;SDS011;42623;49.978;9.966;2023-11-19T00:52:06;6.80;;;3.93;;
56746;SDS011;42623;49.978;9.966;2023-11-19T00:52:17;7.07;;;4.37;;
56746;SDS011;42623;49.978;9.966;2023-11-19T00:52:27;7.93;;;4.88;;
56746;SDS011;42623;49.978;9.966;2023-11-19T00:52:37;8.87;;;5.40;;
56746;SDS011;42623;49.978;9.966;2023-11-19T00:52:47;10.60;;;5.83;;
56746;SDS011;42623;49.978;9.966;2023-11-19T00:52:58;10.80;;;6.03;;
56746;SDS011;42623;49.978;9.966;2023-11-19T00:53:08;11.37;;;6.57;;
56746;SDS011;42623;49.978;9.966;2023-11-19T00:53:18;11.23;;;6.97;;
56746;SDS011;42623;49.978;9.966;2023-11-19T00:53:28;11.10;;;7.00;;
56746;SDS011;42623;49.978;9.966;2023-11-19T00:53:38;10.83;;;6.97;;
56746;SDS011;42623;49.978;9.966;2023-11-19T00:53:48;9.57;;;6.47;;
56746;SDS011;42623;49.978;9.966;2023-11-19T00:53:58;9.00;;;6.05;;
56746;SDS011;42623;49.978;9.966;2023-11-19T00:54:09;9.00;;;5.93;;
56746;SDS011;42623;49.978;9.966;2023-11-19T00:54:19;9.47;;;6.27;;
56746;SDS011;42623;49.978;9.966;2023-11-19T00:54:29;10.43;;;6.67;;
56746;SDS011;42623;49.978;9.966;2023-11-19T00:54:39;10.17;;;6.40;;
56746;SDS011;42623;49.978;9.966;2023-11-19T00:54:49;10.70;;;6.37;;
56746;SDS011;42623;49.978;9.966;2023-11-19T00:55:00;10.70;;;6.40;;
56746;SDS011;42623;49.978;9.966;2023-11-19T00:55:10;12.07;;;6.60;;
56746;SDS011;42623;49.978;9.966;2023-11-19T00:55:21;12.02;;;6.82;;
56746;SDS011;42623;49.978;9.966;2023-11-19T00:55:31;13.30;;;7.17;;
56746;SDS011;42623;49.978;9.966;2023-11-19T00:55:42;13.20;;;7.60;;
56746;SDS011;42623;49.978;9.966;2023-11-19T00:55:52;12.95;;;7.55;;
56746;SDS011;42623;49.978;9.966;2023-11-19T00:56:02;11.70;;;7.00;;
56746;SDS011;42623;49.978;9.966;2023-11-19T00:56:12;10.57;;;6.63;;
56746;SDS011;42623;49.978;9.966;2023-11-19T00:56:22;12.03;;;6.67;;
56746;SDS011;42623;49.978;9.966;2023-11-19T00:56:33;12.43;;;6.90;;
56746;SDS011;42623;49.978;9.966;2023-11-19T00:56:43;12.47;;;7.20;;
56746;SDS011;42623;49.978;9.966;2023-11-19T00:56:54;10.95;;;6.70;;
56746;SDS011;42623;49.978;9.966;2023-11-19T00:57:05;10.45;;;6.70;;
56746;SDS011;42623;49.978;9.966;2023-11-19T00:57:15;10.10;;;6.50;;
56746;SDS011;42623;49.978;9.966;2023-11-19T00:57:26;10.27;;;6.50;;
56746;SDS011;42623;49.978;9.966;2023-11-19T00:57:36;9.77;;;6.47;;
56746;SDS011;42623;49.978;9.966;2023-11-19T00:57:46;10.10;;;6.83;;
56746;SDS011;42623;49.978;9.966;2023-11-19T00:57:57;10.33;;;6.67;;
56746;SDS011;42623;49.978;9.966;2023-11-19T00:58:07;9.73;;;6.27;;
56746;SDS011;42623;49.978;9.966;2023-11-19T00:58:17;8.70;;;5.60;;
56746;SDS011;42623;49.978;9.966;2023-11-19T00:58:28;7.83;;;5.40;;
56746;SDS011;42623;49.978;9.966;2023-11-19T00:58:38;9.03;;;5.70;;
56746;SDS011;42623;49.978;9.966;2023-11-19T00:58:48;10.48;;;6.28;;
56746;SDS011;42623;49.978;9.966;2023-11-19T00:58:58;10.90;;;6.70;;
56746;SDS011;42623;49.978;9.966;2023-11-19T00:59:10;9.90;;;6.38;;
56746;SDS011;42623;49.978;9.966;2023-11-19T00:59:20;9.32;;;5.88;;
56746;SDS011;42623;49.978;9.966;2023-11-19T00:59:30;8.63;;;5.47;;
56746;SDS011;42623;49.978;9.966;2023-11-19T00:59:43;9.33;;;5.20;;
56746;SDS011;42623;49.978;9.966;2023-11-19T00:59:54;10.07;;;4.93;;
56746;SDS011;42623;49.978;9.966;2023-11-19T01:00:05;10.30;;;5.03;;
56746;SDS011;42623;49.978;9.966;2023-11-19T01:00:28;9.57;;;5.10;;
56746;SDS011;42623;49.978;9.966;2023-11-19T01:00:38;10.77;;;5.93;;
56746;SDS011;42623;49.978;9.966;2023-11-19T01:00:48;13.13;;;7.07;;
56746;SDS011;42623;49.978;9.966;2023-11-19T01:00:58;13.07;;;7.67;;
56746;SDS011;42623;49.978;9.966;2023-11-19T01:01:11;12.77;;;7.43;;
56746;SDS011;42623;49.978;9.966;2023-11-19T01:01:21;14.40;;;9.75;;
56746;SDS011;42623;49.978;9.966;2023-11-19T01:01:31;15.75;;;11.40;;
56746;SDS011;42623;49.978;9.966;2023-11-19T01:01:41;15.00;;;11.63;;
56746;SDS011;42623;49.978;9.966;2023-11-19T01:01:51;18.97;;;12.80;;
56746;SDS011;42623;49.978;9.966;2023-11-19T01:02:02;24.00;;;15.80;;
56746;SDS011;42623;49.978;9.966;2023-11-19T01:02:13;26.60;;;17.55;;
56746;SDS011;42623;49.978;9.966;2023-11-19T01:02:24;21.03;;;15.57;;
56746;SDS011;42623;49.978;9.966;2023-11-19T01:02:34;18.83;;;13.68;;
56746;SDS011;42623;49.978;9.966;2023-11-19T01:02:45;18.30;;;13.40;;
56746;SDS011;42623;49.978;9.966;2023-11-19T01:02:55;16.35;;;12.27;;
56746;SDS011;42623;49.978;9.966;2023-11-19T01:03:05;15.30;;;11.60;;
56746;SDS011;42623;49.978;9.966;2023-11-19T01:03:17;20.63;;;13.35;;
56746;SDS011;42623;49.978;9.966;2023-11-19T01:03:27;28.27;;;18.13;;
56746;SDS011;42623;49.978;9.966;2023-11-19T01:03:37;35.57;;;21.70;;